sensor_id;sensor_type;location;lat;lon;timestamp;pressure;altitude;pressure_sealevel;temperature;humidity
50093;BME280;35974;47.752;10.290;2022-09-17T00:01:04;93441.41;;;9.26;86.93
50093;BME280;35974;47.752;10.290;2022-09-17T00:03:31;93435.41;;;9.19;86.35
50093;BME280;35974;47.752;10.290;2022-09-17T00:06:04;93440.69;;;9.05;87.74
50093;BME280;35974;47.752;10.290;2022-09-17T00:08:31;93435.41;;;9.19;86.87
50093;BME280;35974;47.752;10.290;2022-09-17T00:11:09;93427.41;;;9.13;87.54
50093;BME280;35974;47.752;10.290;2022-09-17T00:13:36;93433.22;;;9.15;87.68
50093;BME280;35974;47.752;10.290;2022-09-17T00:16:03;93431.81;;;9.06;88.70
50093;BME280;35974;47.752;10.290;2022-09-17T00:18:30;93434.59;;;9.25;85.73
50093;BME280;35974;47.752;10.290;2022-09-17T00:20:56;93409.72;;;9.15;86.12
50093;BME280;35974;47.752;10.290;2022-09-17T00:23:23;93433.00;;;9.24;86.28
50093;BME280;35974;47.752;10.290;2022-09-17T00:25:49;93421.38;;;9.20;86.70
50093;BME280;35974;47.752;10.290;2022-09-17T00:28:17;93434.34;;;9.40;86.36
50093;BME280;35974;47.752;10.290;2022-09-17T00:30:44;93440.41;;;9.27;85.67
50093;BME280;35974;47.752;10.290;2022-09-17T00:33:15;93420.25;;;8.75;88.13
50093;BME280;35974;47.752;10.290;2022-09-17T00:35:43;93425.44;;;8.82;88.40
50093;BME280;35974;47.752;10.290;2022-09-17T00:38:10;93452.38;;;8.69;88.20
50093;BME280;35974;47.752;10.290;2022-09-17T00:40:37;93412.25;;;8.57;87.94
50093;BME280;35974;47.752;10.290;2022-09-17T00:43:04;93455.16;;;8.94;86.86
50093;BME280;35974;47.752;10.290;2022-09-17T00:45:35;93444.94;;;8.79;88.74
50093;BME280;35974;47.752;10.290;2022-09-17T00:48:04;93456.97;;;8.94;88.99
50093;BME280;35974;47.752;10.290;2022-09-17T00:50:35;93448.31;;;9.07;87.41
50093;BME280;35974;47.752;10.290;2022-09-17T00:53:09;93441.91;;;8.96;87.76
50093;BME280;35974;47.752;10.290;2022-09-17T00:55:44;93454.31;;;9.07;87.96
50093;BME280;35974;47.752;10.290;2022-09-17T00:58:12;93441.53;;;8.72;87.75
50093;BME280;35974;47.752;10.290;2022-09-17T01:00:41;93439.31;;;8.83;89.34
50093;BME280;35974;47.752;10.290;2022-09-17T01:03:07;93423.47;;;8.64;88.44
50093;BME280;35974;47.752;10.290;2022-09-17T01:05:43;93451.56;;;8.62;86.80
50093;BME280;35974;47.752;10.290;2022-09-17T01:16:48;93459.97;;;8.37;86.54
50093;BME280;35974;47.752;10.290;2022-09-17T01:36:39;93465.63;;;8.74;84.75
50093;BME280;35974;47.752;10.290;2022-09-17T01:41:56;93468.78;;;8.10;88.13
50093;BME280;35974;47.752;10.290;2022-09-17T01:47:15;93413.78;;;7.78;88.41
50093;BME280;35974;47.752;10.290;2022-09-17T01:49:47;93437.25;;;7.91;88.67
50093;BME280;35974;47.752;10.290;2022-09-17T01:52:16;93434.25;;;7.94;86.99
50093;BME280;35974;47.752;10.290;2022-09-17T01:54:50;93465.00;;;8.19;86.77
50093;BME280;35974;47.752;10.290;2022-09-17T02:00:26;93462.31;;;7.85;87.71
50093;BME280;35974;47.752;10.290;2022-09-17T02:02:58;93450.66;;;7.75;87.66
50093;BME280;35974;47.752;10.290;2022-09-17T02:05:49;93459.03;;;7.63;87.63
50093;BME280;35974;47.752;10.290;2022-09-17T02:08:23;93449.44;;;7.70;87.80
50093;BME280;35974;47.752;10.290;2022-09-17T02:11:06;93437.00;;;7.59;87.93
50093;BME280;35974;47.752;10.290;2022-09-17T02:14:02;93461.47;;;7.72;86.84
50093;BME280;35974;47.752;10.290;2022-09-17T02:16:32;93464.31;;;7.77;87.78
50093;BME280;35974;47.752;10.290;2022-09-17T02:19:18;93456.50;;;7.77;87.07
50093;BME280;35974;47.752;10.290;2022-09-17T02:21:58;93434.22;;;7.67;87.07
50093;BME280;35974;47.752;10.290;2022-09-17T02:24:32;93465.50;;;7.81;86.38
50093;BME280;35974;47.752;10.290;2022-09-17T02:27:20;93444.47;;;7.89;86.46
50093;BME280;35974;47.752;10.290;2022-09-17T02:29:48;93442.91;;;7.95;86.04
50093;BME280;35974;47.752;10.290;2022-09-17T02:32:15;93428.22;;;7.74;86.93
50093;BME280;35974;47.752;10.290;2022-09-17T02:34:42;93443.22;;;7.72;86.79
50093;BME280;35974;47.752;10.290;2022-09-17T02:37:08;93449.06;;;7.74;87.98
50093;BME280;35974;47.752;10.290;2022-09-17T02:39:35;93453.44;;;7.66;88.68
50093;BME280;35974;47.752;10.290;2022-09-17T02:47:22;93465.44;;;7.54;88.71
50093;BME280;35974;47.752;10.290;2022-09-17T02:52:56;93458.41;;;7.48;88.81
50093;BME280;35974;47.752;10.290;2022-09-17T02:55:48;93457.88;;;7.73;87.75
50093;BME280;35974;47.752;10.290;2022-09-17T02:58:18;93455.44;;;7.64;87.38
50093;BME280;35974;47.752;10.290;2022-09-17T03:00:47;93457.63;;;7.54;87.08
50093;BME280;35974;47.752;10.290;2022-09-17T03:03:27;93442.13;;;7.39;88.68
50093;BME280;35974;47.752;10.290;2022-09-17T03:05:56;93440.13;;;7.35;87.14
50093;BME280;35974;47.752;10.290;2022-09-17T03:08:39;93431.31;;;7.36;86.76
50093;BME280;35974;47.752;10.290;2022-09-17T03:11:06;93453.56;;;7.45;87.78
50093;BME280;35974;47.752;10.290;2022-09-17T03:13:35;93457.84;;;7.59;87.22
50093;BME280;35974;47.752;10.290;2022-09-17T03:16:04;93455.84;;;7.75;86.43
50093;BME280;35974;47.752;10.290;2022-09-17T03:18:31;93441.03;;;7.68;86.29
50093;BME280;35974;47.752;10.290;2022-09-17T03:20:58;93436.63;;;7.76;86.56
50093;BME280;35974;47.752;10.290;2022-09-17T03:23:24;93437.81;;;7.66;86.36
50093;BME280;35974;47.752;10.290;2022-09-17T03:25:53;93447.47;;;7.79;86.04
50093;BME280;35974;47.752;10.290;2022-09-17T03:28:20;93418.59;;;7.67;85.42
50093;BME280;35974;47.752;10.290;2022-09-17T03:30:46;93431.44;;;7.82;85.27
50093;BME280;35974;47.752;10.290;2022-09-17T03:33:13;93438.66;;;7.74;86.51
50093;BME280;35974;47.752;10.290;2022-09-17T03:35:43;93448.25;;;7.80;86.45
50093;BME280;35974;47.752;10.290;2022-09-17T03:38:10;93450.28;;;7.84;86.92
50093;BME280;35974;47.752;10.290;2022-09-17T03:40:37;93439.44;;;7.81;87.00
50093;BME280;35974;47.752;10.290;2022-09-17T03:43:05;93423.19;;;7.65;87.94
50093;BME280;35974;47.752;10.290;2022-09-17T03:45:31;93433.34;;;7.47;87.85
50093;BME280;35974;47.752;10.290;2022-09-17T03:47:58;93423.34;;;7.50;87.23
50093;BME280;35974;47.752;10.290;2022-09-17T03:50:24;93437.22;;;7.64;86.74
50093;BME280;35974;47.752;10.290;2022-09-17T03:52:51;93426.97;;;7.56;87.94
50093;BME280;35974;47.752;10.290;2022-09-17T03:55:17;93450.41;;;7.56;87.22
50093;BME280;35974;47.752;10.290;2022-09-17T03:57:44;93415.97;;;7.54;85.72
50093;BME280;35974;47.752;10.290;2022-09-17T04:00:10;93426.47;;;7.32;87.99
50093;BME280;35974;47.752;10.290;2022-09-17T04:02:38;93415.75;;;7.01;86.62
50093;BME280;35974;47.752;10.290;2022-09-17T04:05:05;93419.22;;;7.21;87.64
50093;BME280;35974;47.752;10.290;2022-09-17T04:07:31;93435.31;;;7.31;86.70
50093;BME280;35974;47.752;10.290;2022-09-17T04:09:58;93437.69;;;7.26;86.71
50093;BME280;35974;47.752;10.290;2022-09-17T04:12:24;93436.47;;;7.22;87.70
50093;BME280;35974;47.752;10.290;2022-09-17T04:14:50;93425.63;;;7.12;87.38
50093;BME280;35974;47.752;10.290;2022-09-17T04:17:17;93422.00;;;7.13;87.08
50093;BME280;35974;47.752;10.290;2022-09-17T04:19:44;93429.34;;;7.38;88.60
50093;BME280;35974;47.752;10.290;2022-09-17T04:22:10;93428.31;;;7.39;87.33
50093;BME280;35974;47.752;10.290;2022-09-17T04:24:36;93444.94;;;7.38;87.96
50093;BME280;35974;47.752;10.290;2022-09-17T04:27:03;93409.16;;;7.05;87.22
50093;BME280;35974;47.752;10.290;2022-09-17T04:29:29;93418.03;;;7.17;88.61
50093;BME280;35974;47.752;10.290;2022-09-17T04:31:56;93410.75;;;6.99;87.30
50093;BME280;35974;47.752;10.290;2022-09-17T04:34:22;93421.22;;;7.19;88.42
50093;BME280;35974;47.752;10.290;2022-09-17T04:36:49;93431.31;;;7.36;88.03
50093;BME280;35974;47.752;10.290;2022-09-17T04:39:15;93439.13;;;7.36;87.72
50093;BME280;35974;47.752;10.290;2022-09-17T04:41:42;93440.19;;;7.55;87.06
50093;BME280;35974;47.752;10.290;2022-09-17T04:44:08;93429.03;;;7.19;87.46
50093;BME280;35974;47.752;10.290;2022-09-17T04:46:35;93433.63;;;7.17;88.63
50093;BME280;35974;47.752;10.290;2022-09-17T04:49:01;93423.22;;;7.10;87.15
50093;BME280;35974;47.752;10.290;2022-09-17T04:51:28;93444.94;;;7.38;87.24
50093;BME280;35974;47.752;10.290;2022-09-17T04:53:54;93444.91;;;7.31;86.64
50093;BME280;35974;47.752;10.290;2022-09-17T04:56:21;93449.38;;;7.50;85.73
50093;BME280;35974;47.752;10.290;2022-09-17T04:58:47;93446.50;;;7.25;87.63
50093;BME280;35974;47.752;10.290;2022-09-17T05:01:13;93470.72;;;7.32;86.68
50093;BME280;35974;47.752;10.290;2022-09-17T05:03:40;93464.16;;;7.37;86.85
50093;BME280;35974;47.752;10.290;2022-09-17T05:06:06;93467.31;;;7.25;86.29
50093;BME280;35974;47.752;10.290;2022-09-17T05:08:33;93454.00;;;7.07;85.60
50093;BME280;35974;47.752;10.290;2022-09-17T05:10:59;93491.00;;;7.44;86.26
50093;BME280;35974;47.752;10.290;2022-09-17T05:13:27;93495.97;;;7.32;84.83
50093;BME280;35974;47.752;10.290;2022-09-17T05:15:54;93502.25;;;7.44;84.97
50093;BME280;35974;47.752;10.290;2022-09-17T05:18:23;93483.31;;;7.22;85.16
50093;BME280;35974;47.752;10.290;2022-09-17T05:20:51;93496.03;;;7.04;86.79
50093;BME280;35974;47.752;10.290;2022-09-17T05:23:17;93493.25;;;7.12;85.06
50093;BME280;35974;47.752;10.290;2022-09-17T05:25:44;93511.25;;;7.07;85.81
50093;BME280;35974;47.752;10.290;2022-09-17T05:28:10;93498.09;;;7.15;86.40
50093;BME280;35974;47.752;10.290;2022-09-17T05:30:37;93508.56;;;7.28;85.38
50093;BME280;35974;47.752;10.290;2022-09-17T05:33:05;93535.38;;;7.29;85.63
50093;BME280;35974;47.752;10.290;2022-09-17T05:35:33;93508.47;;;7.08;86.30
50093;BME280;35974;47.752;10.290;2022-09-17T05:38:03;93530.34;;;7.62;84.96
50093;BME280;35974;47.752;10.290;2022-09-17T05:40:32;93531.88;;;7.50;86.09
50093;BME280;35974;47.752;10.290;2022-09-17T05:42:59;93523.84;;;7.45;85.65
50093;BME280;35974;47.752;10.290;2022-09-17T05:45:27;93540.72;;;7.49;83.79
50093;BME280;35974;47.752;10.290;2022-09-17T05:47:58;93532.31;;;7.54;84.45
50093;BME280;35974;47.752;10.290;2022-09-17T05:50:27;93525.00;;;7.36;84.59
50093;BME280;35974;47.752;10.290;2022-09-17T05:52:54;93538.06;;;7.07;84.22
50093;BME280;35974;47.752;10.290;2022-09-17T05:55:22;93557.78;;;7.23;87.00
50093;BME280;35974;47.752;10.290;2022-09-17T05:57:49;93556.53;;;7.19;85.55
50093;BME280;35974;47.752;10.290;2022-09-17T06:00:16;93559.91;;;7.13;85.01
50093;BME280;35974;47.752;10.290;2022-09-17T06:02:44;93538.44;;;7.04;85.98
50093;BME280;35974;47.752;10.290;2022-09-17T06:05:11;93559.53;;;7.16;87.31
50093;BME280;35974;47.752;10.290;2022-09-17T06:07:40;93559.22;;;7.32;84.74
50093;BME280;35974;47.752;10.290;2022-09-17T06:10:07;93564.75;;;7.51;84.77
50093;BME280;35974;47.752;10.290;2022-09-17T06:12:34;93553.84;;;7.41;85.13
50093;BME280;35974;47.752;10.290;2022-09-17T06:15:03;93566.75;;;7.49;84.19
50093;BME280;35974;47.752;10.290;2022-09-17T06:17:32;93554.53;;;7.21;85.89
50093;BME280;35974;47.752;10.290;2022-09-17T06:20:00;93558.22;;;7.33;86.15
50093;BME280;35974;47.752;10.290;2022-09-17T06:22:26;93571.53;;;7.52;83.53
50093;BME280;35974;47.752;10.290;2022-09-17T06:24:53;93567.50;;;7.43;84.34
50093;BME280;35974;47.752;10.290;2022-09-17T06:27:19;93561.38;;;7.22;84.46
50093;BME280;35974;47.752;10.290;2022-09-17T06:29:46;93560.22;;;7.31;83.85
50093;BME280;35974;47.752;10.290;2022-09-17T06:32:16;93563.44;;;7.33;83.66
50093;BME280;35974;47.752;10.290;2022-09-17T06:34:43;93597.44;;;7.25;86.30
50093;BME280;35974;47.752;10.290;2022-09-17T06:37:09;93587.16;;;7.52;85.09
50093;BME280;35974;47.752;10.290;2022-09-17T06:39:35;93586.63;;;7.28;84.50
50093;BME280;35974;47.752;10.290;2022-09-17T06:42:02;93594.59;;;7.20;86.14
50093;BME280;35974;47.752;10.290;2022-09-17T06:44:28;93615.88;;;7.30;86.49
50093;BME280;35974;47.752;10.290;2022-09-17T06:46:55;93615.44;;;6.77;87.94
50093;BME280;35974;47.752;10.290;2022-09-17T06:49:22;93624.75;;;6.86;87.49
50093;BME280;35974;47.752;10.290;2022-09-17T06:51:49;93606.78;;;6.70;87.68
50093;BME280;35974;47.752;10.290;2022-09-17T06:54:18;93633.88;;;6.82;88.99
50093;BME280;35974;47.752;10.290;2022-09-17T06:56:45;93628.06;;;7.02;88.76
50093;BME280;35974;47.752;10.290;2022-09-17T06:59:12;93613.84;;;6.76;87.99
50093;BME280;35974;47.752;10.290;2022-09-17T07:01:46;93627.44;;;7.00;88.15
50093;BME280;35974;47.752;10.290;2022-09-17T07:04:13;93627.63;;;6.98;88.49
50093;BME280;35974;47.752;10.290;2022-09-17T07:06:39;93620.03;;;6.53;88.11
50093;BME280;35974;47.752;10.290;2022-09-17T07:09:08;93618.53;;;6.22;89.41
50093;BME280;35974;47.752;10.290;2022-09-17T07:11:37;93622.38;;;6.48;90.22
50093;BME280;35974;47.752;10.290;2022-09-17T07:14:04;93592.50;;;6.59;89.51
50093;BME280;35974;47.752;10.290;2022-09-17T07:16:32;93597.25;;;6.55;89.93
50093;BME280;35974;47.752;10.290;2022-09-17T07:19:01;93606.78;;;6.48;90.21
50093;BME280;35974;47.752;10.290;2022-09-17T07:21:28;93590.44;;;6.54;89.61
50093;BME280;35974;47.752;10.290;2022-09-17T07:23:54;93608.50;;;6.63;91.32
50093;BME280;35974;47.752;10.290;2022-09-17T07:26:22;93612.81;;;6.99;90.88
50093;BME280;35974;47.752;10.290;2022-09-17T07:28:48;93613.84;;;6.76;90.47
50093;BME280;35974;47.752;10.290;2022-09-17T07:31:14;93608.03;;;6.95;90.93
50093;BME280;35974;47.752;10.290;2022-09-17T07:33:42;93640.22;;;6.94;90.57
50093;BME280;35974;47.752;10.290;2022-09-17T07:36:11;93639.34;;;7.09;88.48
50093;BME280;35974;47.752;10.290;2022-09-17T07:38:37;93646.06;;;7.03;88.67
50093;BME280;35974;47.752;10.290;2022-09-17T07:41:08;93642.44;;;6.97;88.30
50093;BME280;35974;47.752;10.290;2022-09-17T07:43:35;93629.31;;;7.06;89.41
50093;BME280;35974;47.752;10.290;2022-09-17T07:46:03;93639.06;;;7.25;89.50
50093;BME280;35974;47.752;10.290;2022-09-17T07:48:30;93630.13;;;7.35;88.46
50093;BME280;35974;47.752;10.290;2022-09-17T07:51:00;93600.38;;;7.50;92.12
50093;BME280;35974;47.752;10.290;2022-09-17T07:53:27;93624.16;;;7.76;87.27
50093;BME280;35974;47.752;10.290;2022-09-17T07:55:58;93625.63;;;7.85;87.29
50093;BME280;35974;47.752;10.290;2022-09-17T07:58:30;93620.31;;;8.13;86.78
50093;BME280;35974;47.752;10.290;2022-09-17T08:01:05;93609.75;;;7.80;85.47
50093;BME280;35974;47.752;10.290;2022-09-17T08:03:34;93617.88;;;7.98;83.47
50093;BME280;35974;47.752;10.290;2022-09-17T10:42:35;93622.78;;;10.15;71.00
50093;BME280;35974;47.752;10.290;2022-09-17T10:45:02;93625.22;;;10.03;68.30
50093;BME280;35974;47.752;10.290;2022-09-17T10:47:34;93639.72;;;10.06;69.58
50093;BME280;35974;47.752;10.290;2022-09-17T10:50:04;93643.06;;;9.28;71.44
50093;BME280;35974;47.752;10.290;2022-09-17T10:52:47;93664.75;;;9.35;71.26
50093;BME280;35974;47.752;10.290;2022-09-17T10:58:15;93690.06;;;9.28;75.19
50093;BME280;35974;47.752;10.290;2022-09-17T11:06:42;93694.81;;;8.91;76.18
50093;BME280;35974;47.752;10.290;2022-09-17T11:09:37;93696.22;;;8.38;78.73
50093;BME280;35974;47.752;10.290;2022-09-17T11:23:56;93680.47;;;7.48;84.13
50093;BME280;35974;47.752;10.290;2022-09-17T11:26:35;93679.38;;;7.64;85.60
50093;BME280;35974;47.752;10.290;2022-09-17T11:32:44;93689.91;;;8.13;83.43
50093;BME280;35974;47.752;10.290;2022-09-17T11:35:19;93661.66;;;8.23;82.54
50093;BME280;35974;47.752;10.290;2022-09-17T11:40:31;93652.91;;;8.37;81.93
50093;BME280;35974;47.752;10.290;2022-09-17T11:43:12;93674.22;;;8.54;82.34
50093;BME280;35974;47.752;10.290;2022-09-17T11:46:04;93669.75;;;8.41;83.57
50093;BME280;35974;47.752;10.290;2022-09-17T11:54:22;93677.97;;;7.33;84.42
50093;BME280;35974;47.752;10.290;2022-09-17T11:57:03;93674.00;;;7.38;83.06
50093;BME280;35974;47.752;10.290;2022-09-17T12:00:05;93689.63;;;7.38;84.91
50093;BME280;35974;47.752;10.290;2022-09-17T12:05:21;93651.56;;;8.06;83.66
50093;BME280;35974;47.752;10.290;2022-09-17T12:07:59;93629.97;;;8.13;81.79
50093;BME280;35974;47.752;10.290;2022-09-17T12:10:47;93675.63;;;8.09;81.72
50093;BME280;35974;47.752;10.290;2022-09-17T12:16:12;93644.41;;;8.22;84.61
50093;BME280;35974;47.752;10.290;2022-09-17T12:19:11;93660.19;;;8.49;82.89
50093;BME280;35974;47.752;10.290;2022-09-17T12:21:43;93656.09;;;8.39;80.96
50093;BME280;35974;47.752;10.290;2022-09-17T12:24:27;93661.06;;;8.76;81.47
50093;BME280;35974;47.752;10.290;2022-09-17T12:27:27;93583.06;;;8.26;83.11
50093;BME280;35974;47.752;10.290;2022-09-17T12:30:13;93656.66;;;8.90;80.15
50093;BME280;35974;47.752;10.290;2022-09-17T12:33:12;93654.66;;;8.85;80.44
50093;BME280;35974;47.752;10.290;2022-09-17T12:36:05;93638.59;;;8.82;83.28
50093;BME280;35974;47.752;10.290;2022-09-17T12:42:06;93632.56;;;9.68;82.50
50093;BME280;35974;47.752;10.290;2022-09-17T12:50:20;93602.19;;;9.80;77.05
50093;BME280;35974;47.752;10.290;2022-09-17T12:55:57;93628.56;;;10.31;75.36
50093;BME280;35974;47.752;10.290;2022-09-17T13:01:34;93630.44;;;10.10;73.00
50093;BME280;35974;47.752;10.290;2022-09-17T13:07:51;93644.91;;;10.13;73.80
50093;BME280;35974;47.752;10.290;2022-09-17T13:24:30;93625.16;;;8.98;73.50
50093;BME280;35974;47.752;10.290;2022-09-17T13:27:19;93606.47;;;8.68;73.14
50093;BME280;35974;47.752;10.290;2022-09-17T13:32:47;93663.31;;;9.12;75.86
50093;BME280;35974;47.752;10.290;2022-09-17T13:40:32;93644.50;;;8.42;79.67
50093;BME280;35974;47.752;10.290;2022-09-17T13:45:30;93624.44;;;8.42;80.35
50093;BME280;35974;47.752;10.290;2022-09-17T13:48:02;93651.06;;;8.31;80.33
50093;BME280;35974;47.752;10.290;2022-09-17T13:50:36;93650.41;;;8.16;81.79
50093;BME280;35974;47.752;10.290;2022-09-17T13:53:24;93654.59;;;8.52;81.32
50093;BME280;35974;47.752;10.290;2022-09-17T13:55:59;93652.50;;;8.34;81.46
50093;BME280;35974;47.752;10.290;2022-09-17T13:58:34;93649.94;;;8.05;81.07
50093;BME280;35974;47.752;10.290;2022-09-17T14:01:03;93684.28;;;8.57;81.14
50093;BME280;35974;47.752;10.290;2022-09-17T14:08:49;93665.91;;;7.89;77.96
50093;BME280;35974;47.752;10.290;2022-09-17T14:13:50;93665.47;;;8.75;76.89
50093;BME280;35974;47.752;10.290;2022-09-17T14:24:23;93687.00;;;9.98;72.13
50093;BME280;35974;47.752;10.290;2022-09-17T14:27:05;93668.28;;;9.87;73.69
50093;BME280;35974;47.752;10.290;2022-09-17T14:30:17;93689.16;;;10.14;74.85
50093;BME280;35974;47.752;10.290;2022-09-17T14:35:41;93704.09;;;9.40;73.19
50093;BME280;35974;47.752;10.290;2022-09-17T14:41:06;93692.44;;;9.09;75.85
50093;BME280;35974;47.752;10.290;2022-09-17T14:43:48;93659.47;;;8.95;77.35
50093;BME280;35974;47.752;10.290;2022-09-17T14:46:24;93706.50;;;9.22;75.29
50093;BME280;35974;47.752;10.290;2022-09-17T14:48:53;93683.53;;;8.77;76.52
50093;BME280;35974;47.752;10.290;2022-09-17T14:56:32;93678.38;;;9.70;75.12
50093;BME280;35974;47.752;10.290;2022-09-17T14:59:00;93661.53;;;9.40;73.29
50093;BME280;35974;47.752;10.290;2022-09-17T15:01:29;93658.53;;;9.29;71.06
50093;BME280;35974;47.752;10.290;2022-09-17T15:06:38;93697.25;;;8.99;72.06
50093;BME280;35974;47.752;10.290;2022-09-17T15:09:13;93705.53;;;8.61;74.61
50093;BME280;35974;47.752;10.290;2022-09-17T15:11:42;93703.97;;;8.60;74.85
50093;BME280;35974;47.752;10.290;2022-09-17T15:14:15;93700.97;;;8.28;76.58
50093;BME280;35974;47.752;10.290;2022-09-17T15:16:52;93706.94;;;8.15;78.18
50093;BME280;35974;47.752;10.290;2022-09-17T15:19:26;93700.59;;;8.31;79.03
50093;BME280;35974;47.752;10.290;2022-09-17T15:22:01;93675.69;;;8.22;77.34
50093;BME280;35974;47.752;10.290;2022-09-17T15:24:39;93703.97;;;8.25;77.87
50093;BME280;35974;47.752;10.290;2022-09-17T15:27:13;93683.22;;;8.03;78.92
50093;BME280;35974;47.752;10.290;2022-09-17T15:29:46;93682.53;;;8.30;78.75
50093;BME280;35974;47.752;10.290;2022-09-17T15:32:14;93664.88;;;8.25;78.30
50093;BME280;35974;47.752;10.290;2022-09-17T15:34:40;93650.13;;;7.97;80.59
50093;BME280;35974;47.752;10.290;2022-09-17T15:37:19;93676.00;;;8.05;77.74
50093;BME280;35974;47.752;10.290;2022-09-17T15:39:47;93697.75;;;8.19;79.71
50093;BME280;35974;47.752;10.290;2022-09-17T15:42:22;93699.91;;;8.51;78.49
50093;BME280;35974;47.752;10.290;2022-09-17T15:45:28;93704.47;;;8.07;80.54
50093;BME280;35974;47.752;10.290;2022-09-17T15:48:00;93686.19;;;8.35;79.72
50093;BME280;35974;47.752;10.290;2022-09-17T15:50:28;93681.78;;;8.42;80.19
50093;BME280;35974;47.752;10.290;2022-09-17T15:55:37;93680.56;;;7.90;81.09
50093;BME280;35974;47.752;10.290;2022-09-17T15:58:19;93695.22;;;7.98;83.34
50093;BME280;35974;47.752;10.290;2022-09-17T16:00:46;93668.34;;;7.97;82.42
50093;BME280;35974;47.752;10.290;2022-09-17T16:06:02;93689.13;;;7.84;82.10
50093;BME280;35974;47.752;10.290;2022-09-17T16:08:33;93678.44;;;8.14;83.01
50093;BME280;35974;47.752;10.290;2022-09-17T16:11:00;93680.00;;;8.01;82.95
50093;BME280;35974;47.752;10.290;2022-09-17T16:13:26;93694.59;;;8.31;82.29
50093;BME280;35974;47.752;10.290;2022-09-17T16:15:54;93694.81;;;8.01;81.89
50093;BME280;35974;47.752;10.290;2022-09-17T16:18:20;93668.97;;;7.64;83.32
50093;BME280;35974;47.752;10.290;2022-09-17T16:20:46;93703.84;;;7.70;85.08
50093;BME280;35974;47.752;10.290;2022-09-17T16:23:13;93710.81;;;7.91;83.68
50093;BME280;35974;47.752;10.290;2022-09-17T16:25:39;93690.09;;;7.83;83.49
50093;BME280;35974;47.752;10.290;2022-09-17T16:28:12;93745.28;;;8.28;83.53
50093;BME280;35974;47.752;10.290;2022-09-17T16:30:46;93760.06;;;7.86;85.49
50093;BME280;35974;47.752;10.290;2022-09-17T16:33:15;93743.13;;;7.68;86.04
50093;BME280;35974;47.752;10.290;2022-09-17T16:35:42;93695.56;;;6.88;87.39
50093;BME280;35974;47.752;10.290;2022-09-17T16:38:09;93731.38;;;7.51;86.14
50093;BME280;35974;47.752;10.290;2022-09-17T16:40:41;93742.19;;;7.26;86.81
50093;BME280;35974;47.752;10.290;2022-09-17T16:43:08;93736.22;;;7.54;85.96
50093;BME280;35974;47.752;10.290;2022-09-17T16:45:35;93736.34;;;7.24;87.18
50093;BME280;35974;47.752;10.290;2022-09-17T16:48:02;93726.91;;;7.02;86.99
50093;BME280;35974;47.752;10.290;2022-09-17T16:50:29;93732.63;;;7.12;87.49
50093;BME280;35974;47.752;10.290;2022-09-17T16:52:55;93698.94;;;7.04;87.42
50093;BME280;35974;47.752;10.290;2022-09-17T16:55:28;93733.19;;;7.29;85.33
50093;BME280;35974;47.752;10.290;2022-09-17T16:57:56;93756.66;;;7.14;85.83
50093;BME280;35974;47.752;10.290;2022-09-17T17:00:24;93732.47;;;6.99;87.19
50093;BME280;35974;47.752;10.290;2022-09-17T17:02:54;93758.25;;;7.58;85.09
50093;BME280;35974;47.752;10.290;2022-09-17T17:05:22;93759.25;;;7.36;85.57
50093;BME280;35974;47.752;10.290;2022-09-17T17:07:49;93746.19;;;7.07;86.33
50093;BME280;35974;47.752;10.290;2022-09-17T17:10:16;93741.09;;;7.42;84.84
50093;BME280;35974;47.752;10.290;2022-09-17T17:12:45;93729.66;;;7.37;84.11
50093;BME280;35974;47.752;10.290;2022-09-17T17:15:11;93739.69;;;7.40;84.84
50093;BME280;35974;47.752;10.290;2022-09-17T17:17:39;93725.94;;;7.24;86.89
50093;BME280;35974;47.752;10.290;2022-09-17T17:20:19;93737.53;;;7.22;86.68
50093;BME280;35974;47.752;10.290;2022-09-17T17:22:49;93751.22;;;7.30;86.51
50093;BME280;35974;47.752;10.290;2022-09-17T17:25:24;93732.81;;;7.32;86.72
50093;BME280;35974;47.752;10.290;2022-09-17T17:27:55;93762.09;;;7.41;87.14
50093;BME280;35974;47.752;10.290;2022-09-17T17:30:23;93722.06;;;6.99;88.08
50093;BME280;35974;47.752;10.290;2022-09-17T17:33:02;93737.31;;;7.02;88.45
50093;BME280;35974;47.752;10.290;2022-09-17T17:35:38;93751.97;;;7.46;88.09
50093;BME280;35974;47.752;10.290;2022-09-17T17:38:04;93725.19;;;7.09;87.59
50093;BME280;35974;47.752;10.290;2022-09-17T17:40:31;93728.66;;;7.16;87.04
50093;BME280;35974;47.752;10.290;2022-09-17T17:42:57;93723.22;;;6.89;86.72
50093;BME280;35974;47.752;10.290;2022-09-17T17:45:24;93741.06;;;7.14;85.26
50093;BME280;35974;47.752;10.290;2022-09-17T17:47:50;93767.81;;;7.08;85.64
50093;BME280;35974;47.752;10.290;2022-09-17T17:50:17;93707.19;;;6.71;86.51
50093;BME280;35974;47.752;10.290;2022-09-17T17:52:43;93703.22;;;6.53;86.18
50093;BME280;35974;47.752;10.290;2022-09-17T17:55:14;93742.63;;;6.93;86.17
50093;BME280;35974;47.752;10.290;2022-09-17T17:57:41;93782.31;;;7.17;86.06
50093;BME280;35974;47.752;10.290;2022-09-17T18:00:08;93760.72;;;6.80;85.77
50093;BME280;35974;47.752;10.290;2022-09-17T18:02:39;93780.13;;;6.99;86.46
50093;BME280;35974;47.752;10.290;2022-09-17T18:05:05;93764.28;;;6.79;86.86
50093;BME280;35974;47.752;10.290;2022-09-17T18:07:32;93769.19;;;6.89;87.22
50093;BME280;35974;47.752;10.290;2022-09-17T18:10:00;93766.69;;;6.95;85.81
50093;BME280;35974;47.752;10.290;2022-09-17T18:12:26;93765.31;;;7.00;85.61
50093;BME280;35974;47.752;10.290;2022-09-17T18:14:53;93779.09;;;7.15;85.46
50093;BME280;35974;47.752;10.290;2022-09-17T18:17:19;93777.13;;;7.17;84.34
50093;BME280;35974;47.752;10.290;2022-09-17T18:19:46;93779.47;;;7.12;85.24
50093;BME280;35974;47.752;10.290;2022-09-17T18:22:12;93789.38;;;7.45;84.32
50093;BME280;35974;47.752;10.290;2022-09-17T18:24:39;93793.47;;;7.32;84.60
50093;BME280;35974;47.752;10.290;2022-09-17T18:27:05;93783.19;;;7.24;85.60
50093;BME280;35974;47.752;10.290;2022-09-17T18:29:32;93785.28;;;6.92;86.49
50093;BME280;35974;47.752;10.290;2022-09-17T18:31:58;93779.16;;;6.85;86.31
50093;BME280;35974;47.752;10.290;2022-09-17T18:34:25;93801.13;;;6.97;85.22